Pagrindinis puslapis
METAR-TAF:

METAR-TAF

Oro uostai :

Karakasas, Venesuela

platuma: 10-36N, ilguma: 066-59W, Aukštis: 43 m

Dabartinis oras

Ataskaita buvo paskelbta 1 valandą ir 18 minutes, ne 15:00 UTC
Vėjas 4 kt iš Rytų/Šiaurės Rytų
Temperatūra 27°C
Drėgmė 84%
Slėgis 1011 hPa
Matomumas 10 km arba daugiau
Išsisklaidę debesys ne aukštis 1600 ft

METAR: SVMI 201500Z 07004KT 9999 SCT016 27/24 Q1011

Laikas: 12:18 (16:18 UTC)

Prognozė

Ataskaita buvo paskelbta 18 valandos ir 18 minutes, ne 22:00 UTC
Prognozė galioja nuo 19 metu 18 UTC su 20 metu 18 UTC
Vėjas kt iš Šiaurės
Matomumas: 9000 m
dulksna
Tapsmas
nuo 19 metu 18 UTC su 19 metu 22 UTC
Vėjas kt iš Šiaurės
Matomumas: 9000 m
dulksna

TAF: SVMI 192200Z 1918/2018 00000KT 9000 DZ BNK016 TX30/18Z TN24/06Z BECMG 1918/1922 00000KT 9000 DZ BNK016

Orai ataskaitas ir orų prognozės (METAR, TAF).

turimą stotys yra geltonos ir raudonos taškus žemėlapyje.

Perkelti pele per norėdami pamatyti stoties vardą.

Tada spustelėkite, norėdami matyti oro stebėjimo ir prognozės.

Norėdami pakeisti žemėlapį: spustelėkite ant žalios mygtukų su juodo kryžiaus žemyn,; žalią mygtuką su brūkšneliu, jei norite nutolinti; arba žalių rodyklių gretimoms žemėlapius.


METAR-TAF: